Wetterstation Rossbuehl

Zugriff auf die letzten 10 Werte 30 Werte 100 Werte 400 Werte

Datum_____UhrzeitWind
Mittel
Wind
min
Wind
Boe
Wind
BoeTag
Wind
Richtung
Temp1
Feuchte Station Power
type
BatterieInter
vall
SMS
JJJJ-MM-TT hh:mmkm/hmin SpitzePeak Grad °C % ID Ex.oBat Volt min St.
2022-08-16 22:57 19 15 25 85 19.2 25 2 5.73 1
2022-08-16 22:41 18 15 19 84 19.2 2 2 5.73 1
2022-08-16 22:12 13 11 16 85 19.6 6 2 5.75 1
2022-08-16 21:56 13 12 15 89 19.8 21 2 5.73 1
2022-08-16 21:41 15 13 18 75 20.1 13 2 5.74 1
2022-08-16 21:26 17 10 21 69 20.2 29 2 5.73 1
2022-08-16 21:11 10 6 12 62 20.4 35 2 5.73 1
2022-08-16 20:41 2 3 4 320 21 8 2 5.74 1
2022-08-16 08:13 8 5 10 272 14.8 23 2 5.77 1
2022-08-16 01:58 13 13 14 263 14.4 4 2 5.77 1
2022-08-16 01:41 12 10 14 274 14.4 2 2 5.77 1
2022-08-16 01:26 11 9 13 257 14.6 13 2 5.78 1
2022-08-16 01:11 16 12 19 257 14.7 23 2 5.77 1
2022-08-16 00:56 13 7 19 257 14.7 2 2 5.77 1
2022-08-16 00:41 16 9 20 238 14.6 21 2 5.77 1
2022-08-16 00:26 13 6 18 266 14.8 10 2 5.77 1
2022-08-16 00:11 19 11 23 249 14.9 6 2 5.77 1
2022-08-15 23:56 11 9 12 252 14.7 2 2 5.76 1
2022-08-15 23:41 12 9 14 258 14.8 21 2 5.77 1
2022-08-15 23:26 13 12 15 257 14.6 4 2 5.77 1